sensor_id;sensor_type;location;lat;lon;timestamp;P1;durP1;ratioP1;P2;durP2;ratioP2
21771;SDS011;11047;47.904;8.110;2023-10-19T00:00:47;4.82;;;2.90;;
21771;SDS011;11047;47.904;8.110;2023-10-19T00:03:15;5.93;;;2.67;;
21771;SDS011;11047;47.904;8.110;2023-10-19T00:05:43;4.20;;;2.40;;
21771;SDS011;11047;47.904;8.110;2023-10-19T00:08:11;8.45;;;2.35;;
21771;SDS011;11047;47.904;8.110;2023-10-19T00:10:45;5.10;;;2.50;;
21771;SDS011;11047;47.904;8.110;2023-10-19T00:13:14;6.65;;;2.60;;
21771;SDS011;11047;47.904;8.110;2023-10-19T00:15:44;7.88;;;2.88;;
21771;SDS011;11047;47.904;8.110;2023-10-19T00:18:13;3.53;;;2.08;;
21771;SDS011;11047;47.904;8.110;2023-10-19T00:23:19;5.70;;;2.33;;
21771;SDS011;11047;47.904;8.110;2023-10-19T00:25:54;4.00;;;2.35;;
21771;SDS011;11047;47.904;8.110;2023-10-19T00:28:20;8.27;;;2.20;;
21771;SDS011;11047;47.904;8.110;2023-10-19T00:30:51;5.57;;;2.97;;
21771;SDS011;11047;47.904;8.110;2023-10-19T00:33:18;5.68;;;2.15;;
21771;SDS011;11047;47.904;8.110;2023-10-19T00:35:47;5.50;;;2.40;;
21771;SDS011;11047;47.904;8.110;2023-10-19T00:38:23;4.80;;;2.30;;
21771;SDS011;11047;47.904;8.110;2023-10-19T00:43:37;6.68;;;2.42;;
21771;SDS011;11047;47.904;8.110;2023-10-19T00:46:09;4.07;;;2.30;;
21771;SDS011;11047;47.904;8.110;2023-10-19T00:48:40;6.30;;;2.13;;
21771;SDS011;11047;47.904;8.110;2023-10-19T00:51:10;5.85;;;3.00;;
21771;SDS011;11047;47.904;8.110;2023-10-19T00:53:52;3.30;;;2.75;;
21771;SDS011;11047;47.904;8.110;2023-10-19T00:56:21;2.70;;;1.83;;
21771;SDS011;11047;47.904;8.110;2023-10-19T00:58:52;5.28;;;2.58;;
21771;SDS011;11047;47.904;8.110;2023-10-19T01:01:25;2.85;;;2.15;;
21771;SDS011;11047;47.904;8.110;2023-10-19T01:03:55;4.05;;;2.75;;
21771;SDS011;11047;47.904;8.110;2023-10-19T01:06:23;7.10;;;2.30;;
21771;SDS011;11047;47.904;8.110;2023-10-19T01:08:50;3.03;;;1.98;;
21771;SDS011;11047;47.904;8.110;2023-10-19T01:11:19;3.28;;;1.80;;
21771;SDS011;11047;47.904;8.110;2023-10-19T01:13:47;2.35;;;1.77;;
21771;SDS011;11047;47.904;8.110;2023-10-19T01:16:16;2.10;;;1.60;;
21771;SDS011;11047;47.904;8.110;2023-10-19T01:18:48;2.85;;;1.90;;
21771;SDS011;11047;47.904;8.110;2023-10-19T01:21:19;5.40;;;1.75;;
21771;SDS011;11047;47.904;8.110;2023-10-19T01:23:53;2.40;;;2.13;;
21771;SDS011;11047;47.904;8.110;2023-10-19T01:26:21;2.47;;;1.80;;
21771;SDS011;11047;47.904;8.110;2023-10-19T01:28:51;2.67;;;2.20;;
21771;SDS011;11047;47.904;8.110;2023-10-19T01:31:25;3.38;;;1.88;;
21771;SDS011;11047;47.904;8.110;2023-10-19T01:34:04;3.72;;;2.15;;
21771;SDS011;11047;47.904;8.110;2023-10-19T01:36:32;2.55;;;2.03;;
21771;SDS011;11047;47.904;8.110;2023-10-19T01:39:08;7.43;;;2.28;;
21771;SDS011;11047;47.904;8.110;2023-10-19T01:41:35;4.28;;;2.00;;
21771;SDS011;11047;47.904;8.110;2023-10-19T01:44:02;5.03;;;2.22;;
21771;SDS011;11047;47.904;8.110;2023-10-19T01:46:29;4.53;;;2.60;;
21771;SDS011;11047;47.904;8.110;2023-10-19T01:48:59;4.65;;;2.08;;
21771;SDS011;11047;47.904;8.110;2023-10-19T01:51:28;3.20;;;2.15;;
21771;SDS011;11047;47.904;8.110;2023-10-19T01:53:58;3.63;;;2.30;;
21771;SDS011;11047;47.904;8.110;2023-10-19T01:56:27;3.88;;;1.95;;
21771;SDS011;11047;47.904;8.110;2023-10-19T01:58:54;2.53;;;1.80;;
21771;SDS011;11047;47.904;8.110;2023-10-19T02:01:20;3.20;;;1.90;;
21771;SDS011;11047;47.904;8.110;2023-10-19T02:03:54;3.63;;;2.05;;
21771;SDS011;11047;47.904;8.110;2023-10-19T02:06:23;4.38;;;1.83;;
21771;SDS011;11047;47.904;8.110;2023-10-19T02:08:54;6.32;;;2.10;;
21771;SDS011;11047;47.904;8.110;2023-10-19T02:11:21;4.22;;;2.22;;
21771;SDS011;11047;47.904;8.110;2023-10-19T02:13:52;2.88;;;1.80;;
21771;SDS011;11047;47.904;8.110;2023-10-19T02:16:19;2.85;;;1.95;;
21771;SDS011;11047;47.904;8.110;2023-10-19T02:18:47;2.65;;;1.65;;
21771;SDS011;11047;47.904;8.110;2023-10-19T02:21:14;4.57;;;1.90;;
21771;SDS011;11047;47.904;8.110;2023-10-19T02:23:46;4.00;;;1.63;;
21771;SDS011;11047;47.904;8.110;2023-10-19T02:26:15;2.58;;;1.70;;
21771;SDS011;11047;47.904;8.110;2023-10-19T02:28:45;2.22;;;1.75;;
21771;SDS011;11047;47.904;8.110;2023-10-19T02:31:12;1.90;;;1.70;;
21771;SDS011;11047;47.904;8.110;2023-10-19T02:33:43;2.70;;;1.83;;
21771;SDS011;11047;47.904;8.110;2023-10-19T02:36:17;3.33;;;1.77;;
21771;SDS011;11047;47.904;8.110;2023-10-19T02:38:44;3.25;;;1.60;;
21771;SDS011;11047;47.904;8.110;2023-10-19T02:41:15;2.60;;;1.45;;
21771;SDS011;11047;47.904;8.110;2023-10-19T02:43:42;3.20;;;1.60;;
21771;SDS011;11047;47.904;8.110;2023-10-19T02:46:17;3.77;;;1.50;;
21771;SDS011;11047;47.904;8.110;2023-10-19T02:48:43;3.58;;;1.30;;
21771;SDS011;11047;47.904;8.110;2023-10-19T02:51:10;3.25;;;1.52;;
21771;SDS011;11047;47.904;8.110;2023-10-19T02:53:37;5.75;;;1.60;;
21771;SDS011;11047;47.904;8.110;2023-10-19T02:56:11;4.28;;;1.33;;
21771;SDS011;11047;47.904;8.110;2023-10-19T02:58:40;1.85;;;1.25;;
21771;SDS011;11047;47.904;8.110;2023-10-19T03:01:12;2.97;;;1.38;;
21771;SDS011;11047;47.904;8.110;2023-10-19T03:03:43;3.20;;;1.40;;
21771;SDS011;11047;47.904;8.110;2023-10-19T03:06:11;4.97;;;1.42;;
21771;SDS011;11047;47.904;8.110;2023-10-19T03:08:38;1.83;;;1.15;;
21771;SDS011;11047;47.904;8.110;2023-10-19T03:11:04;1.33;;;1.00;;
21771;SDS011;11047;47.904;8.110;2023-10-19T03:13:32;3.08;;;1.40;;
21771;SDS011;11047;47.904;8.110;2023-10-19T03:15:58;4.75;;;1.20;;
21771;SDS011;11047;47.904;8.110;2023-10-19T03:21:00;1.40;;;0.80;;
21771;SDS011;11047;47.904;8.110;2023-10-19T03:23:27;0.95;;;0.82;;
21771;SDS011;11047;47.904;8.110;2023-10-19T03:25:54;1.38;;;0.93;;
21771;SDS011;11047;47.904;8.110;2023-10-19T03:28:39;2.00;;;1.00;;
21771;SDS011;11047;47.904;8.110;2023-10-19T03:31:08;1.70;;;0.80;;
21771;SDS011;11047;47.904;8.110;2023-10-19T03:33:42;1.45;;;0.95;;
21771;SDS011;11047;47.904;8.110;2023-10-19T03:36:11;0.80;;;0.80;;
21771;SDS011;11047;47.904;8.110;2023-10-19T03:38:39;1.70;;;1.00;;
21771;SDS011;11047;47.904;8.110;2023-10-19T03:41:06;2.75;;;1.20;;
21771;SDS011;11047;47.904;8.110;2023-10-19T03:43:34;1.25;;;1.08;;
21771;SDS011;11047;47.904;8.110;2023-10-19T03:46:02;2.08;;;1.10;;
21771;SDS011;11047;47.904;8.110;2023-10-19T03:48:39;3.08;;;1.00;;
21771;SDS011;11047;47.904;8.110;2023-10-19T03:51:06;2.90;;;1.10;;
21771;SDS011;11047;47.904;8.110;2023-10-19T03:53:38;3.95;;;1.33;;
21771;SDS011;11047;47.904;8.110;2023-10-19T03:56:08;1.80;;;1.00;;
21771;SDS011;11047;47.904;8.110;2023-10-19T03:58:36;3.10;;;1.10;;
21771;SDS011;11047;47.904;8.110;2023-10-19T04:01:04;2.30;;;1.10;;
21771;SDS011;11047;47.904;8.110;2023-10-19T04:03:32;3.35;;;1.17;;
21771;SDS011;11047;47.904;8.110;2023-10-19T04:06:01;1.27;;;0.80;;
21771;SDS011;11047;47.904;8.110;2023-10-19T04:08:30;7.10;;;5.30;;
21771;SDS011;11047;47.904;8.110;2023-10-19T04:11:03;1.40;;;1.10;;
21771;SDS011;11047;47.904;8.110;2023-10-19T04:16:18;2.45;;;0.98;;
21771;SDS011;11047;47.904;8.110;2023-10-19T04:18:45;3.33;;;1.60;;
21771;SDS011;11047;47.904;8.110;2023-10-19T04:21:13;2.22;;;1.30;;
21771;SDS011;11047;47.904;8.110;2023-10-19T04:23:40;1.40;;;1.13;;
21771;SDS011;11047;47.904;8.110;2023-10-19T04:26:09;3.63;;;1.00;;
21771;SDS011;11047;47.904;8.110;2023-10-19T04:28:37;4.13;;;1.33;;
21771;SDS011;11047;47.904;8.110;2023-10-19T04:31:10;2.03;;;1.17;;
21771;SDS011;11047;47.904;8.110;2023-10-19T04:33:40;2.70;;;1.23;;
21771;SDS011;11047;47.904;8.110;2023-10-19T04:36:10;1.75;;;1.00;;
21771;SDS011;11047;47.904;8.110;2023-10-19T04:38:39;4.65;;;1.08;;
21771;SDS011;11047;47.904;8.110;2023-10-19T04:41:06;1.30;;;1.17;;
21771;SDS011;11047;47.904;8.110;2023-10-19T04:43:35;1.98;;;1.35;;
21771;SDS011;11047;47.904;8.110;2023-10-19T04:46:04;3.10;;;1.38;;
21771;SDS011;11047;47.904;8.110;2023-10-19T04:48:35;1.75;;;1.10;;
21771;SDS011;11047;47.904;8.110;2023-10-19T04:51:04;3.03;;;1.30;;
21771;SDS011;11047;47.904;8.110;2023-10-19T04:53:31;3.38;;;1.25;;
21771;SDS011;11047;47.904;8.110;2023-10-19T04:55:59;1.90;;;1.08;;
21771;SDS011;11047;47.904;8.110;2023-10-19T04:58:27;3.20;;;2.22;;
21771;SDS011;11047;47.904;8.110;2023-10-19T05:00:54;2.58;;;1.20;;
21771;SDS011;11047;47.904;8.110;2023-10-19T05:03:23;1.55;;;1.40;;
21771;SDS011;11047;47.904;8.110;2023-10-19T05:05:50;2.38;;;1.60;;
21771;SDS011;11047;47.904;8.110;2023-10-19T05:08:17;1.92;;;1.67;;
21771;SDS011;11047;47.904;8.110;2023-10-19T05:10:44;4.85;;;2.00;;
21771;SDS011;11047;47.904;8.110;2023-10-19T05:13:11;2.72;;;1.60;;
21771;SDS011;11047;47.904;8.110;2023-10-19T05:15:40;4.55;;;2.75;;
21771;SDS011;11047;47.904;8.110;2023-10-19T05:18:08;3.60;;;1.50;;
21771;SDS011;11047;47.904;8.110;2023-10-19T05:20:35;2.28;;;1.52;;
21771;SDS011;11047;47.904;8.110;2023-10-19T05:23:05;1.42;;;1.30;;
21771;SDS011;11047;47.904;8.110;2023-10-19T05:25:33;3.22;;;1.63;;
21771;SDS011;11047;47.904;8.110;2023-10-19T05:28:01;2.47;;;1.50;;
21771;SDS011;11047;47.904;8.110;2023-10-19T05:30:28;4.00;;;1.30;;
21771;SDS011;11047;47.904;8.110;2023-10-19T05:32:56;2.85;;;1.52;;
21771;SDS011;11047;47.904;8.110;2023-10-19T05:35:25;6.55;;;1.90;;
21771;SDS011;11047;47.904;8.110;2023-10-19T05:37:52;2.17;;;1.50;;
21771;SDS011;11047;47.904;8.110;2023-10-19T05:40:20;3.67;;;2.80;;
21771;SDS011;11047;47.904;8.110;2023-10-19T05:42:48;2.05;;;1.50;;
21771;SDS011;11047;47.904;8.110;2023-10-19T05:45:15;5.28;;;1.95;;
21771;SDS011;11047;47.904;8.110;2023-10-19T05:47:42;3.45;;;1.30;;
21771;SDS011;11047;47.904;8.110;2023-10-19T05:50:11;3.08;;;1.20;;
21771;SDS011;11047;47.904;8.110;2023-10-19T05:52:40;2.10;;;1.10;;
21771;SDS011;11047;47.904;8.110;2023-10-19T05:55:08;1.30;;;1.20;;
21771;SDS011;11047;47.904;8.110;2023-10-19T05:57:36;2.83;;;1.40;;
21771;SDS011;11047;47.904;8.110;2023-10-19T06:00:07;1.55;;;0.93;;
21771;SDS011;11047;47.904;8.110;2023-10-19T06:02:39;1.97;;;1.20;;
21771;SDS011;11047;47.904;8.110;2023-10-19T06:05:08;1.40;;;1.30;;
21771;SDS011;11047;47.904;8.110;2023-10-19T06:07:37;2.65;;;1.23;;
21771;SDS011;11047;47.904;8.110;2023-10-19T06:10:04;1.33;;;1.20;;
21771;SDS011;11047;47.904;8.110;2023-10-19T06:12:32;1.70;;;1.60;;
21771;SDS011;11047;47.904;8.110;2023-10-19T06:14:59;1.75;;;1.65;;
21771;SDS011;11047;47.904;8.110;2023-10-19T06:17:27;1.45;;;1.33;;
21771;SDS011;11047;47.904;8.110;2023-10-19T06:19:54;3.67;;;1.40;;
21771;SDS011;11047;47.904;8.110;2023-10-19T06:22:23;3.45;;;1.20;;
21771;SDS011;11047;47.904;8.110;2023-10-19T06:24:49;1.40;;;1.30;;
21771;SDS011;11047;47.904;8.110;2023-10-19T06:27:16;1.65;;;1.05;;
21771;SDS011;11047;47.904;8.110;2023-10-19T06:29:44;2.90;;;1.08;;
21771;SDS011;11047;47.904;8.110;2023-10-19T06:32:10;3.15;;;1.50;;
21771;SDS011;11047;47.904;8.110;2023-10-19T06:34:39;1.40;;;1.02;;
21771;SDS011;11047;47.904;8.110;2023-10-19T06:37:06;2.45;;;1.67;;
21771;SDS011;11047;47.904;8.110;2023-10-19T06:39:37;1.63;;;1.17;;
21771;SDS011;11047;47.904;8.110;2023-10-19T06:42:07;2.58;;;1.30;;
21771;SDS011;11047;47.904;8.110;2023-10-19T06:44:39;2.75;;;1.58;;
21771;SDS011;11047;47.904;8.110;2023-10-19T06:47:08;2.00;;;1.33;;
21771;SDS011;11047;47.904;8.110;2023-10-19T06:49:35;1.95;;;1.50;;
21771;SDS011;11047;47.904;8.110;2023-10-19T06:52:03;3.70;;;1.42;;
21771;SDS011;11047;47.904;8.110;2023-10-19T06:54:30;2.65;;;1.63;;
21771;SDS011;11047;47.904;8.110;2023-10-19T06:56:59;2.75;;;1.80;;
21771;SDS011;11047;47.904;8.110;2023-10-19T06:59:28;1.98;;;1.67;;
21771;SDS011;11047;47.904;8.110;2023-10-19T07:01:58;3.25;;;2.15;;
21771;SDS011;11047;47.904;8.110;2023-10-19T07:04:26;2.45;;;1.52;;
21771;SDS011;11047;47.904;8.110;2023-10-19T07:06:54;3.72;;;2.30;;
21771;SDS011;11047;47.904;8.110;2023-10-19T07:09:21;2.33;;;1.58;;
21771;SDS011;11047;47.904;8.110;2023-10-19T07:11:48;1.83;;;1.63;;
21771;SDS011;11047;47.904;8.110;2023-10-19T07:14:19;2.85;;;2.40;;
21771;SDS011;11047;47.904;8.110;2023-10-19T07:16:47;3.90;;;1.95;;
21771;SDS011;11047;47.904;8.110;2023-10-19T07:19:14;3.42;;;1.63;;
21771;SDS011;11047;47.904;8.110;2023-10-19T07:21:41;1.63;;;1.42;;
21771;SDS011;11047;47.904;8.110;2023-10-19T07:24:13;2.78;;;1.98;;
21771;SDS011;11047;47.904;8.110;2023-10-19T07:26:43;3.40;;;2.40;;
21771;SDS011;11047;47.904;8.110;2023-10-19T07:29:19;3.75;;;1.63;;
21771;SDS011;11047;47.904;8.110;2023-10-19T07:31:47;2.47;;;1.60;;
21771;SDS011;11047;47.904;8.110;2023-10-19T07:34:14;1.80;;;1.38;;
21771;SDS011;11047;47.904;8.110;2023-10-19T07:36:41;3.20;;;2.08;;
21771;SDS011;11047;47.904;8.110;2023-10-19T07:39:08;4.18;;;2.20;;
21771;SDS011;11047;47.904;8.110;2023-10-19T07:41:39;3.40;;;1.90;;
21771;SDS011;11047;47.904;8.110;2023-10-19T07:44:06;3.35;;;2.03;;
21771;SDS011;11047;47.904;8.110;2023-10-19T07:46:34;3.90;;;1.92;;
21771;SDS011;11047;47.904;8.110;2023-10-19T07:49:01;3.78;;;1.98;;
21771;SDS011;11047;47.904;8.110;2023-10-19T07:51:28;2.97;;;1.50;;
21771;SDS011;11047;47.904;8.110;2023-10-19T07:53:56;2.92;;;1.77;;
21771;SDS011;11047;47.904;8.110;2023-10-19T07:56:23;2.78;;;1.50;;
21771;SDS011;11047;47.904;8.110;2023-10-19T07:58:50;1.90;;;1.60;;
21771;SDS011;11047;47.904;8.110;2023-10-19T08:01:17;3.58;;;1.38;;
21771;SDS011;11047;47.904;8.110;2023-10-19T08:03:45;2.70;;;1.20;;
21771;SDS011;11047;47.904;8.110;2023-10-19T08:06:12;1.10;;;0.82;;
21771;SDS011;11047;47.904;8.110;2023-10-19T08:08:39;3.00;;;1.60;;
21771;SDS011;11047;47.904;8.110;2023-10-19T08:11:07;4.25;;;1.70;;
21771;SDS011;11047;47.904;8.110;2023-10-19T08:13:34;2.53;;;1.30;;
21771;SDS011;11047;47.904;8.110;2023-10-19T08:16:01;2.40;;;1.10;;
21771;SDS011;11047;47.904;8.110;2023-10-19T08:18:28;1.92;;;1.40;;
21771;SDS011;11047;47.904;8.110;2023-10-19T08:20:58;1.20;;;1.10;;
21771;SDS011;11047;47.904;8.110;2023-10-19T08:23:25;1.70;;;1.40;;
21771;SDS011;11047;47.904;8.110;2023-10-19T08:25:52;3.47;;;1.42;;
21771;SDS011;11047;47.904;8.110;2023-10-19T08:28:19;2.25;;;1.42;;
21771;SDS011;11047;47.904;8.110;2023-10-19T08:30:47;1.38;;;1.27;;
21771;SDS011;11047;47.904;8.110;2023-10-19T08:33:22;3.53;;;1.77;;
21771;SDS011;11047;47.904;8.110;2023-10-19T08:35:51;5.47;;;1.90;;
21771;SDS011;11047;47.904;8.110;2023-10-19T08:38:20;1.77;;;1.67;;
21771;SDS011;11047;47.904;8.110;2023-10-19T08:40:48;2.25;;;1.33;;
21771;SDS011;11047;47.904;8.110;2023-10-19T08:43:16;1.55;;;1.35;;
21771;SDS011;11047;47.904;8.110;2023-10-19T08:45:44;2.25;;;1.52;;
21771;SDS011;11047;47.904;8.110;2023-10-19T08:48:11;5.32;;;1.65;;
21771;SDS011;11047;47.904;8.110;2023-10-19T08:50:39;2.83;;;1.33;;
21771;SDS011;11047;47.904;8.110;2023-10-19T08:53:06;1.60;;;1.50;;
21771;SDS011;11047;47.904;8.110;2023-10-19T08:55:35;1.70;;;1.20;;
21771;SDS011;11047;47.904;8.110;2023-10-19T08:58:02;4.60;;;1.30;;
21771;SDS011;11047;47.904;8.110;2023-10-19T09:00:42;1.20;;;1.08;;
21771;SDS011;11047;47.904;8.110;2023-10-19T09:03:12;2.22;;;1.05;;
21771;SDS011;11047;47.904;8.110;2023-10-19T09:05:41;2.60;;;1.52;;
21771;SDS011;11047;47.904;8.110;2023-10-19T09:08:09;1.27;;;1.10;;
21771;SDS011;11047;47.904;8.110;2023-10-19T09:10:42;1.20;;;1.10;;
21771;SDS011;11047;47.904;8.110;2023-10-19T09:13:11;2.17;;;1.27;;
21771;SDS011;11047;47.904;8.110;2023-10-19T09:15:41;2.72;;;1.20;;
21771;SDS011;11047;47.904;8.110;2023-10-19T09:18:14;1.27;;;0.82;;
21771;SDS011;11047;47.904;8.110;2023-10-19T09:20:42;1.33;;;1.05;;
21771;SDS011;11047;47.904;8.110;2023-10-19T09:23:18;3.85;;;1.35;;
21771;SDS011;11047;47.904;8.110;2023-10-19T09:25:50;2.35;;;1.10;;
21771;SDS011;11047;47.904;8.110;2023-10-19T09:28:18;4.05;;;1.13;;
21771;SDS011;11047;47.904;8.110;2023-10-19T09:30:45;1.00;;;0.90;;
21771;SDS011;11047;47.904;8.110;2023-10-19T09:33:13;2.13;;;0.93;;
21771;SDS011;11047;47.904;8.110;2023-10-19T09:35:43;1.80;;;1.00;;
21771;SDS011;11047;47.904;8.110;2023-10-19T09:38:13;4.57;;;1.27;;
21771;SDS011;11047;47.904;8.110;2023-10-19T09:40:40;2.67;;;1.50;;
21771;SDS011;11047;47.904;8.110;2023-10-19T09:43:12;6.75;;;1.80;;
21771;SDS011;11047;47.904;8.110;2023-10-19T09:45:46;4.05;;;1.90;;
21771;SDS011;11047;47.904;8.110;2023-10-19T09:48:16;3.63;;;1.92;;
21771;SDS011;11047;47.904;8.110;2023-10-19T09:50:45;2.72;;;2.00;;
21771;SDS011;11047;47.904;8.110;2023-10-19T09:53:20;3.30;;;2.38;;
21771;SDS011;11047;47.904;8.110;2023-10-19T09:55:49;2.25;;;2.05;;
21771;SDS011;11047;47.904;8.110;2023-10-19T09:58:23;5.10;;;2.17;;
21771;SDS011;11047;47.904;8.110;2023-10-19T10:00:54;3.50;;;1.75;;
21771;SDS011;11047;47.904;8.110;2023-10-19T10:06:08;2.60;;;1.60;;
21771;SDS011;11047;47.904;8.110;2023-10-19T10:08:37;3.60;;;1.60;;
21771;SDS011;11047;47.904;8.110;2023-10-19T10:11:18;1.83;;;1.55;;
21771;SDS011;11047;47.904;8.110;2023-10-19T10:13:48;4.50;;;1.85;;
21771;SDS011;11047;47.904;8.110;2023-10-19T10:16:17;3.88;;;1.20;;
21771;SDS011;11047;47.904;8.110;2023-10-19T10:18:46;1.63;;;1.52;;
21771;SDS011;11047;47.904;8.110;2023-10-19T10:21:16;1.50;;;1.40;;
21771;SDS011;11047;47.904;8.110;2023-10-19T10:23:46;5.15;;;1.15;;
21771;SDS011;11047;47.904;8.110;2023-10-19T10:26:14;0.60;;;0.60;;
21771;SDS011;11047;47.904;8.110;2023-10-19T10:28:45;0.47;;;0.30;;
21771;SDS011;11047;47.904;8.110;2023-10-19T10:31:15;0.43;;;0.43;;
21771;SDS011;11047;47.904;8.110;2023-10-19T10:33:46;2.28;;;0.50;;
21771;SDS011;11047;47.904;8.110;2023-10-19T10:36:15;1.48;;;0.52;;
21771;SDS011;11047;47.904;8.110;2023-10-19T10:38:43;1.13;;;0.60;;
21771;SDS011;11047;47.904;8.110;2023-10-19T10:41:11;0.98;;;0.47;;
21771;SDS011;11047;47.904;8.110;2023-10-19T10:43:52;0.90;;;0.38;;
21771;SDS011;11047;47.904;8.110;2023-10-19T10:46:21;1.05;;;0.47;;
21771;SDS011;11047;47.904;8.110;2023-10-19T10:48:49;1.10;;;0.60;;
21771;SDS011;11047;47.904;8.110;2023-10-19T10:51:20;0.45;;;0.38;;
21771;SDS011;11047;47.904;8.110;2023-10-19T10:53:48;1.75;;;0.45;;
21771;SDS011;11047;47.904;8.110;2023-10-19T10:56:16;2.45;;;0.80;;
21771;SDS011;11047;47.904;8.110;2023-10-19T10:58:44;0.45;;;0.43;;
21771;SDS011;11047;47.904;8.110;2023-10-19T11:01:12;3.20;;;0.45;;
21771;SDS011;11047;47.904;8.110;2023-10-19T11:03:39;0.65;;;0.50;;
21771;SDS011;11047;47.904;8.110;2023-10-19T11:06:07;1.00;;;0.30;;
21771;SDS011;11047;47.904;8.110;2023-10-19T11:08:35;1.00;;;0.50;;
21771;SDS011;11047;47.904;8.110;2023-10-19T11:11:03;0.35;;;0.32;;
21771;SDS011;11047;47.904;8.110;2023-10-19T11:13:31;0.50;;;0.30;;
21771;SDS011;11047;47.904;8.110;2023-10-19T11:16:02;0.40;;;0.30;;
21771;SDS011;11047;47.904;8.110;2023-10-19T11:18:33;1.02;;;0.60;;
21771;SDS011;11047;47.904;8.110;2023-10-19T11:21:02;0.90;;;0.63;;
21771;SDS011;11047;47.904;8.110;2023-10-19T11:23:35;0.45;;;0.30;;
21771;SDS011;11047;47.904;8.110;2023-10-19T11:26:05;0.80;;;0.60;;
21771;SDS011;11047;47.904;8.110;2023-10-19T11:28:33;1.38;;;0.55;;
21771;SDS011;11047;47.904;8.110;2023-10-19T11:31:10;0.30;;;0.30;;
21771;SDS011;11047;47.904;8.110;2023-10-19T11:33:40;3.00;;;0.50;;
21771;SDS011;11047;47.904;8.110;2023-10-19T11:36:08;0.82;;;0.80;;
21771;SDS011;11047;47.904;8.110;2023-10-19T11:38:37;0.88;;;0.35;;
21771;SDS011;11047;47.904;8.110;2023-10-19T11:41:05;0.93;;;0.55;;
21771;SDS011;11047;47.904;8.110;2023-10-19T11:43:32;0.70;;;0.70;;
21771;SDS011;11047;47.904;8.110;2023-10-19T11:46:00;0.70;;;0.60;;
21771;SDS011;11047;47.904;8.110;2023-10-19T11:48:28;3.25;;;0.88;;
21771;SDS011;11047;47.904;8.110;2023-10-19T11:50:56;1.10;;;0.60;;
21771;SDS011;11047;47.904;8.110;2023-10-19T11:53:23;0.85;;;0.70;;
21771;SDS011;11047;47.904;8.110;2023-10-19T11:55:50;0.52;;;0.50;;
21771;SDS011;11047;47.904;8.110;2023-10-19T11:58:17;1.17;;;0.40;;
21771;SDS011;11047;47.904;8.110;2023-10-19T12:00:44;2.20;;;0.88;;
21771;SDS011;11047;47.904;8.110;2023-10-19T12:03:11;0.80;;;0.45;;
21771;SDS011;11047;47.904;8.110;2023-10-19T12:05:39;0.70;;;0.40;;
21771;SDS011;11047;47.904;8.110;2023-10-19T12:08:08;1.35;;;0.60;;
21771;SDS011;11047;47.904;8.110;2023-10-19T12:10:35;1.38;;;0.45;;
21771;SDS011;11047;47.904;8.110;2023-10-19T12:13:03;0.50;;;0.47;;
21771;SDS011;11047;47.904;8.110;2023-10-19T12:15:33;0.82;;;0.55;;
21771;SDS011;11047;47.904;8.110;2023-10-19T12:18:00;2.00;;;0.90;;
21771;SDS011;11047;47.904;8.110;2023-10-19T12:20:28;1.70;;;0.68;;
21771;SDS011;11047;47.904;8.110;2023-10-19T12:22:56;3.08;;;0.63;;
21771;SDS011;11047;47.904;8.110;2023-10-19T12:25:25;0.80;;;0.40;;
21771;SDS011;11047;47.904;8.110;2023-10-19T12:27:58;0.40;;;0.40;;
21771;SDS011;11047;47.904;8.110;2023-10-19T12:30:25;0.95;;;0.30;;
21771;SDS011;11047;47.904;8.110;2023-10-19T12:32:59;0.20;;;0.20;;
21771;SDS011;11047;47.904;8.110;2023-10-19T12:35:26;0.73;;;0.50;;
21771;SDS011;11047;47.904;8.110;2023-10-19T12:38:09;0.85;;;0.40;;
21771;SDS011;11047;47.904;8.110;2023-10-19T12:40:42;0.43;;;0.40;;
21771;SDS011;11047;47.904;8.110;2023-10-19T12:43:11;1.27;;;0.85;;
21771;SDS011;11047;47.904;8.110;2023-10-19T12:45:38;0.88;;;0.38;;
21771;SDS011;11047;47.904;8.110;2023-10-19T12:48:06;0.50;;;0.35;;
21771;SDS011;11047;47.904;8.110;2023-10-19T12:50:36;0.57;;;0.35;;
21771;SDS011;11047;47.904;8.110;2023-10-19T12:53:03;0.60;;;0.60;;
21771;SDS011;11047;47.904;8.110;2023-10-19T12:55:31;0.38;;;0.32;;
21771;SDS011;11047;47.904;8.110;2023-10-19T12:57:59;0.38;;;0.38;;
21771;SDS011;11047;47.904;8.110;2023-10-19T13:03:06;1.02;;;0.40;;
21771;SDS011;11047;47.904;8.110;2023-10-19T13:05:34;4.82;;;0.52;;
21771;SDS011;11047;47.904;8.110;2023-10-19T13:08:02;1.90;;;0.40;;
21771;SDS011;11047;47.904;8.110;2023-10-19T13:10:32;0.40;;;0.40;;
21771;SDS011;11047;47.904;8.110;2023-10-19T13:13:03;1.77;;;1.42;;
21771;SDS011;11047;47.904;8.110;2023-10-19T13:15:31;1.30;;;0.50;;
21771;SDS011;11047;47.904;8.110;2023-10-19T13:17:59;0.77;;;0.60;;
21771;SDS011;11047;47.904;8.110;2023-10-19T13:20:27;0.38;;;0.38;;
21771;SDS011;11047;47.904;8.110;2023-10-19T13:22:58;0.70;;;0.70;;
21771;SDS011;11047;47.904;8.110;2023-10-19T13:25:26;0.80;;;0.70;;
21771;SDS011;11047;47.904;8.110;2023-10-19T13:28:08;2.83;;;0.80;;
21771;SDS011;11047;47.904;8.110;2023-10-19T13:30:36;1.00;;;0.77;;
21771;SDS011;11047;47.904;8.110;2023-10-19T13:33:04;0.70;;;0.55;;
21771;SDS011;11047;47.904;8.110;2023-10-19T13:35:31;0.73;;;0.40;;
21771;SDS011;11047;47.904;8.110;2023-10-19T13:37:58;1.42;;;0.50;;
21771;SDS011;11047;47.904;8.110;2023-10-19T13:40:26;0.70;;;0.70;;
21771;SDS011;11047;47.904;8.110;2023-10-19T13:42:55;0.57;;;0.50;;
21771;SDS011;11047;47.904;8.110;2023-10-19T13:45:23;0.70;;;0.50;;
21771;SDS011;11047;47.904;8.110;2023-10-19T13:47:50;0.50;;;0.50;;
21771;SDS011;11047;47.904;8.110;2023-10-19T13:50:20;1.70;;;0.50;;
21771;SDS011;11047;47.904;8.110;2023-10-19T13:52:49;1.98;;;0.50;;
21771;SDS011;11047;47.904;8.110;2023-10-19T13:55:17;1.52;;;0.60;;
21771;SDS011;11047;47.904;8.110;2023-10-19T13:57:46;1.63;;;0.88;;
21771;SDS011;11047;47.904;8.110;2023-10-19T14:00:13;1.08;;;0.60;;
21771;SDS011;11047;47.904;8.110;2023-10-19T14:02:50;0.60;;;0.60;;
21771;SDS011;11047;47.904;8.110;2023-10-19T14:05:17;1.42;;;0.50;;
21771;SDS011;11047;47.904;8.110;2023-10-19T14:07:45;0.98;;;0.60;;
21771;SDS011;11047;47.904;8.110;2023-10-19T14:10:12;2.25;;;0.70;;
21771;SDS011;11047;47.904;8.110;2023-10-19T14:12:41;2.05;;;0.90;;
21771;SDS011;11047;47.904;8.110;2023-10-19T14:15:12;2.03;;;1.60;;
21771;SDS011;11047;47.904;8.110;2023-10-19T14:17:42;2.03;;;1.80;;
21771;SDS011;11047;47.904;8.110;2023-10-19T14:20:12;2.72;;;1.67;;
21771;SDS011;11047;47.904;8.110;2023-10-19T14:22:40;2.20;;;0.93;;
21771;SDS011;11047;47.904;8.110;2023-10-19T14:25:08;2.33;;;1.05;;
21771;SDS011;11047;47.904;8.110;2023-10-19T14:27:38;1.58;;;0.70;;
21771;SDS011;11047;47.904;8.110;2023-10-19T14:30:09;1.00;;;0.70;;
21771;SDS011;11047;47.904;8.110;2023-10-19T14:32:38;1.05;;;0.60;;
21771;SDS011;11047;47.904;8.110;2023-10-19T14:35:07;0.95;;;0.60;;
21771;SDS011;11047;47.904;8.110;2023-10-19T14:37:37;1.60;;;0.70;;
21771;SDS011;11047;47.904;8.110;2023-10-19T14:40:07;1.27;;;0.68;;
21771;SDS011;11047;47.904;8.110;2023-10-19T14:42:35;1.05;;;0.70;;
21771;SDS011;11047;47.904;8.110;2023-10-19T14:45:04;1.42;;;0.90;;
21771;SDS011;11047;47.904;8.110;2023-10-19T14:47:34;1.52;;;0.90;;
21771;SDS011;11047;47.904;8.110;2023-10-19T14:50:02;3.25;;;1.50;;
21771;SDS011;11047;47.904;8.110;2023-10-19T14:52:30;1.02;;;0.80;;
21771;SDS011;11047;47.904;8.110;2023-10-19T14:54:58;2.47;;;0.70;;
21771;SDS011;11047;47.904;8.110;2023-10-19T14:57:25;3.45;;;1.00;;
21771;SDS011;11047;47.904;8.110;2023-10-19T14:59:53;2.60;;;1.38;;
21771;SDS011;11047;47.904;8.110;2023-10-19T15:02:19;2.50;;;1.83;;
21771;SDS011;11047;47.904;8.110;2023-10-19T15:04:48;4.47;;;3.47;;
21771;SDS011;11047;47.904;8.110;2023-10-19T15:07:16;3.10;;;1.23;;
21771;SDS011;11047;47.904;8.110;2023-10-19T15:09:44;1.80;;;1.70;;
21771;SDS011;11047;47.904;8.110;2023-10-19T15:12:13;0.98;;;0.93;;
21771;SDS011;11047;47.904;8.110;2023-10-19T15:14:41;1.80;;;1.67;;